Walton, Texas
Current Conditions -  °F | °C
As of 11:15 AM on Sunday 23 Nov 2014 (Local Time) from KF44 Reporting Station
Clear Clear  
Wind Chill: 17°   Ceiling: Unl
Heat Index: 17°   Visibility: 10mi
Dew Point: 14°   Wind: 8mph
Humidity: 82%   Direction: 200°SSW
Pressure: 29.51"   Gusts: NA
Location:  32.2052°N, 95.8517°W
Report Text: KF44 231715Z AUTO 20007KT 10SM CLR 17/14 A2951 RMK AO2
Loading
Personal Weather Stations






























Interactive Weather Map New forecast layout! Learn more

10-Day Weather Forecast

Advertisements
Track Severe Weather on mobile